createdAt,value
2018-12-11T00:01:23.687Z,2.83
2018-12-11T00:03:51.973Z,3.10
2018-12-11T00:06:20.226Z,2.87
2018-12-11T00:08:48.516Z,2.42
2018-12-11T00:11:16.751Z,2.72
2018-12-11T00:13:44.986Z,2.90
2018-12-11T00:16:13.200Z,2.30
2018-12-11T00:18:41.413Z,2.40
2018-12-11T00:21:09.632Z,3.15
2018-12-11T00:23:37.857Z,2.40
2018-12-11T00:26:06.109Z,2.30
2018-12-11T00:28:34.405Z,2.90
2018-12-11T00:31:02.604Z,3.08
2018-12-11T00:33:30.828Z,2.40
2018-12-11T00:35:59.141Z,2.67
2018-12-11T00:38:27.366Z,2.60
2018-12-11T00:40:55.663Z,2.22
2018-12-11T00:43:23.864Z,2.15
2018-12-11T00:45:53.160Z,1.90
2018-12-11T00:48:21.405Z,1.40
2018-12-11T00:50:49.801Z,1.87
2018-12-11T00:53:17.755Z,1.55
2018-12-11T00:55:45.717Z,2.10
2018-12-11T00:58:13.788Z,2.12
2018-12-11T01:00:48.842Z,2.08
2018-12-11T01:03:17.070Z,2.40
2018-12-11T01:05:45.289Z,2.30
2018-12-11T01:08:13.566Z,1.85
2018-12-11T01:10:41.875Z,2.10
2018-12-11T01:13:10.110Z,2.60
2018-12-11T01:15:38.402Z,2.10
2018-12-11T01:18:08.714Z,2.05
2018-12-11T01:20:36.933Z,2.87
2018-12-11T01:23:05.162Z,2.42
2018-12-11T01:25:33.435Z,1.77
2018-12-11T01:28:01.673Z,2.05
2018-12-11T01:30:29.989Z,2.02
2018-12-11T01:32:58.204Z,2.15
2018-12-11T01:35:26.432Z,2.10
2018-12-11T01:37:54.722Z,2.30
2018-12-11T01:40:23.123Z,2.12
2018-12-11T01:42:51.473Z,1.72
2018-12-11T01:45:19.756Z,2.45
2018-12-11T01:52:37.878Z,2.00
2018-12-11T01:55:06.402Z,2.08
2018-12-11T01:57:34.448Z,1.60
2018-12-11T02:00:02.719Z,2.00
2018-12-11T02:02:31.111Z,2.10
2018-12-11T02:04:59.659Z,1.95
2018-12-11T02:07:29.060Z,2.70
2018-12-11T02:09:57.395Z,2.00
2018-12-11T02:12:25.800Z,1.90
2018-12-11T02:14:54.156Z,1.55
2018-12-11T02:17:22.420Z,1.80
2018-12-11T02:19:50.857Z,2.25
2018-12-11T02:22:20.434Z,2.08
2018-12-11T02:24:48.975Z,1.90
2018-12-11T02:27:17.440Z,2.30
2018-12-11T02:29:46.773Z,2.40
2018-12-11T02:32:15.515Z,2.10
2018-12-11T02:34:43.980Z,1.87
2018-12-11T02:37:12.450Z,1.50
2018-12-11T02:39:40.989Z,1.72
2018-12-11T02:42:09.386Z,1.90
2018-12-11T02:44:37.897Z,1.60
2018-12-11T02:47:06.370Z,1.77
2018-12-11T02:49:34.780Z,2.05
2018-12-11T02:52:03.122Z,1.85
2018-12-11T02:54:32.027Z,1.60
2018-12-11T02:57:00.293Z,1.60
2018-12-11T02:59:35.003Z,1.27
2018-12-11T03:02:03.991Z,1.70
2018-12-11T03:04:31.961Z,1.32
2018-12-11T03:07:00.150Z,2.40
2018-12-11T03:09:28.362Z,1.70
2018-12-11T03:11:57.962Z,1.62
2018-12-11T03:14:26.229Z,2.42
2018-12-11T03:16:54.489Z,1.60
2018-12-11T03:19:22.708Z,1.42
2018-12-11T03:21:50.959Z,1.47
2018-12-11T03:24:19.265Z,2.15
2018-12-11T03:26:47.504Z,2.37
2018-12-11T03:29:15.770Z,1.80
2018-12-11T03:31:46.073Z,1.80
2018-12-11T03:34:14.338Z,2.08
2018-12-11T03:36:42.560Z,2.33
2018-12-11T03:39:10.841Z,3.00
2018-12-11T03:41:39.090Z,2.08
2018-12-11T03:44:07.331Z,2.50
2018-12-11T03:46:37.674Z,2.20
2018-12-11T03:49:05.954Z,2.00
2018-12-11T03:51:34.202Z,1.98
2018-12-11T03:54:02.432Z,1.70
2018-12-11T03:56:30.674Z,1.62
2018-12-11T03:58:58.970Z,2.02
2018-12-11T04:01:27.265Z,1.70
2018-12-11T04:03:55.516Z,1.72
2018-12-11T04:06:23.766Z,2.67
2018-12-11T04:08:52.003Z,1.62
2018-12-11T04:11:21.258Z,2.20
2018-12-11T04:13:49.477Z,1.82
2018-12-11T04:16:17.784Z,2.00
2018-12-11T04:18:46.002Z,1.85
2018-12-11T04:21:14.218Z,2.40
2018-12-11T04:23:42.496Z,3.50
2018-12-11T04:26:10.795Z,2.05
2018-12-11T04:28:40.174Z,2.20
2018-12-11T04:31:08.420Z,2.30
2018-12-11T04:33:36.637Z,2.70
2018-12-11T04:36:05.942Z,2.30
2018-12-11T04:38:34.218Z,2.90
2018-12-11T04:41:02.504Z,2.83
2018-12-11T04:43:30.722Z,2.70
2018-12-11T04:45:59.025Z,2.70
2018-12-11T04:48:28.332Z,3.42
2018-12-11T04:50:56.541Z,3.20
2018-12-11T04:53:24.819Z,4.25
2018-12-11T04:55:53.033Z,3.27
2018-12-11T04:58:21.340Z,4.20
2018-12-11T05:00:49.559Z,4.08
2018-12-11T05:03:19.830Z,3.22
2018-12-11T05:05:48.082Z,3.92
2018-12-11T05:08:16.683Z,3.17
2018-12-11T05:10:48.136Z,3.08
2018-12-11T05:13:16.201Z,3.58
2018-12-11T05:15:44.426Z,3.20
2018-12-11T05:18:12.670Z,2.70
2018-12-11T05:20:44.539Z,2.98
2018-12-11T05:23:12.766Z,2.77
2018-12-11T05:25:42.147Z,2.20
2018-12-11T05:28:11.416Z,2.25
2018-12-11T05:30:39.619Z,2.22
2018-12-11T05:33:08.857Z,2.27
2018-12-11T05:35:42.578Z,1.85
2018-12-11T05:38:10.806Z,2.10
2018-12-11T05:40:40.852Z,1.80
2018-12-11T05:43:09.121Z,1.72
2018-12-11T05:45:37.424Z,3.00
2018-12-11T05:48:07.669Z,2.60
2018-12-11T05:50:35.929Z,2.10
2018-12-11T05:53:04.170Z,2.50
2018-12-11T05:55:32.471Z,2.83
2018-12-11T05:58:00.688Z,4.58
2018-12-11T06:00:28.896Z,2.95
2018-12-11T06:02:57.227Z,3.37
2018-12-11T06:05:25.433Z,2.20
2018-12-11T06:07:53.637Z,6.80
2018-12-11T06:10:21.836Z,2.92
2018-12-11T06:12:50.074Z,2.22
2018-12-11T06:15:18.065Z,2.12
2018-12-11T06:17:46.308Z,2.33
2018-12-11T06:20:14.690Z,1.90
2018-12-11T06:22:42.669Z,2.05
2018-12-11T06:25:10.922Z,2.25
2018-12-11T06:27:40.187Z,2.25
2018-12-11T06:30:09.618Z,3.67
2018-12-11T06:32:37.854Z,3.30
2018-12-11T06:35:06.119Z,5.40
2018-12-11T06:37:34.356Z,3.80
2018-12-11T06:40:02.612Z,3.50
2018-12-11T06:42:31.877Z,2.70
2018-12-11T06:45:00.119Z,1.70
2018-12-11T06:47:28.424Z,2.62
2018-12-11T06:49:56.662Z,2.67
2018-12-11T06:52:24.902Z,3.58
2018-12-11T06:54:53.140Z,2.50
2018-12-11T06:57:26.674Z,2.50
2018-12-11T06:59:54.918Z,2.52
2018-12-11T07:02:25.156Z,2.55
2018-12-11T07:04:53.444Z,2.62
2018-12-11T07:07:23.749Z,2.72
2018-12-11T07:09:52.072Z,3.02
2018-12-11T07:12:20.296Z,3.20
2018-12-11T07:14:48.520Z,3.00
2018-12-11T07:17:16.731Z,2.47
2018-12-11T07:19:51.085Z,3.42
2018-12-11T07:22:20.354Z,2.95
2018-12-11T07:24:48.556Z,2.62
2018-12-11T07:27:16.557Z,3.15
2018-12-11T07:29:45.860Z,3.05
2018-12-11T07:32:18.976Z,2.45
2018-12-11T07:34:46.970Z,2.20
2018-12-11T07:37:15.168Z,2.30
2018-12-11T07:39:43.372Z,2.08
2018-12-11T07:42:12.217Z,2.00
2018-12-11T07:44:40.459Z,2.30
2018-12-11T07:47:08.668Z,2.80
2018-12-11T07:49:37.015Z,3.27
2018-12-11T07:52:05.219Z,3.92
2018-12-11T07:54:33.425Z,3.35
2018-12-11T07:57:01.617Z,2.92
2018-12-11T07:59:30.837Z,3.45
2018-12-11T08:01:59.037Z,2.67
2018-12-11T08:04:27.302Z,17.25
2018-12-11T08:06:55.505Z,7.40
2018-12-11T08:09:30.471Z,6.60
2018-12-11T08:11:58.706Z,16.42
2018-12-11T08:14:26.927Z,9.80
2018-12-11T08:16:55.158Z,3.92
2018-12-11T08:19:23.605Z,8.85
2018-12-11T08:21:51.832Z,4.67
2018-12-11T08:24:20.063Z,3.33
2018-12-11T08:26:48.298Z,3.55
2018-12-11T08:29:16.541Z,2.95
2018-12-11T08:31:45.056Z,2.20
2018-12-11T08:34:13.057Z,9.03
2018-12-11T08:36:41.035Z,5.05
2018-12-11T08:39:20.733Z,3.80
2018-12-11T08:41:48.999Z,3.62
2018-12-11T08:44:17.233Z,4.40
2018-12-11T08:46:47.609Z,6.53
2018-12-11T08:49:15.635Z,6.05
2018-12-11T08:51:43.944Z,5.95
2018-12-11T08:54:12.222Z,4.97
2018-12-11T08:56:40.508Z,4.20
2018-12-11T08:59:09.761Z,3.98
2018-12-11T09:01:37.997Z,3.35
2018-12-11T09:04:06.248Z,4.78
2018-12-11T09:06:34.510Z,8.73
2018-12-11T09:09:02.847Z,7.47
2018-12-11T09:11:31.117Z,7.25
2018-12-11T09:13:59.428Z,5.20
2018-12-11T09:16:27.676Z,11.15
2018-12-11T09:18:55.912Z,5.72
2018-12-11T09:21:25.193Z,4.40
2018-12-11T09:23:54.359Z,3.72
2018-12-11T09:26:28.308Z,5.70
2018-12-11T09:28:56.713Z,5.20
2018-12-11T09:31:25.945Z,4.70
2018-12-11T09:33:54.180Z,3.15
2018-12-11T09:36:22.400Z,3.10
2018-12-11T09:38:50.646Z,2.00
2018-12-11T09:41:18.905Z,2.00
2018-12-11T09:43:47.149Z,2.50
2018-12-11T09:46:15.373Z,3.62
2018-12-11T09:48:43.347Z,2.00
2018-12-11T09:51:17.640Z,1.90
2018-12-11T09:53:41.825Z,2.00
2018-12-11T09:56:10.083Z,2.15
2018-12-11T09:58:38.303Z,1.70
2018-12-11T10:01:06.530Z,1.82
2018-12-11T10:03:34.812Z,1.20
2018-12-11T10:06:03.127Z,2.30
2018-12-11T10:08:31.425Z,2.42
2018-12-11T10:10:59.655Z,1.20
2018-12-11T10:13:27.886Z,1.75
2018-12-11T10:15:56.149Z,1.52
2018-12-11T10:18:24.439Z,1.17
2018-12-11T10:20:52.695Z,1.70
2018-12-11T10:23:21.316Z,1.50
2018-12-11T10:25:49.532Z,1.30
2018-12-11T10:28:17.756Z,1.55
2018-12-11T10:30:48.021Z,1.62
2018-12-11T10:33:17.099Z,2.35
2018-12-11T10:35:45.303Z,1.12
2018-12-11T10:38:13.547Z,1.50
2018-12-11T10:40:45.131Z,1.40
2018-12-11T10:43:13.364Z,1.62
2018-12-11T10:45:41.604Z,1.02
2018-12-11T10:48:09.607Z,1.20
2018-12-11T10:50:39.709Z,1.55
2018-12-11T10:53:07.799Z,1.83
2018-12-11T10:55:36.012Z,1.00
2018-12-11T10:58:04.345Z,1.23
2018-12-11T11:00:38.086Z,1.60
2018-12-11T11:03:08.019Z,1.25
2018-12-11T11:05:36.253Z,1.87
2018-12-11T11:08:04.483Z,1.60
2018-12-11T11:10:32.732Z,2.00
2018-12-11T11:13:01.072Z,1.20
2018-12-11T11:15:30.390Z,1.50
2018-12-11T11:17:58.693Z,1.32
2018-12-11T11:20:27.009Z,1.40
2018-12-11T11:22:55.333Z,1.65
2018-12-11T11:25:23.585Z,1.32
2018-12-11T11:27:51.893Z,1.42
2018-12-11T11:30:20.115Z,1.50
2018-12-11T11:32:48.343Z,1.10
2018-12-11T11:35:16.585Z,1.17
2018-12-11T11:37:44.922Z,1.73
2018-12-11T11:40:13.152Z,2.73
2018-12-11T11:42:42.488Z,4.80
2018-12-11T11:45:11.825Z,7.33
2018-12-11T11:47:40.045Z,1.80
2018-12-11T11:50:11.044Z,1.97
2018-12-11T11:52:39.008Z,1.47
2018-12-11T11:55:07.052Z,1.87
2018-12-11T11:57:35.041Z,1.10
2018-12-11T12:00:03.828Z,1.10
2018-12-11T12:02:33.518Z,1.80
2018-12-11T12:05:01.968Z,2.08
2018-12-11T12:07:30.243Z,1.67
2018-12-11T12:09:58.468Z,1.60
2018-12-11T12:12:26.693Z,1.12
2018-12-11T12:14:54.919Z,1.10
2018-12-11T12:17:23.122Z,1.60
2018-12-11T12:19:51.329Z,1.52
2018-12-11T12:22:19.624Z,1.35
2018-12-11T12:24:47.833Z,1.50
2018-12-11T12:27:16.034Z,0.90
2018-12-11T12:29:44.246Z,1.10
2018-12-11T12:32:12.453Z,1.35
2018-12-11T12:34:40.655Z,1.52
2018-12-11T12:37:09.032Z,2.20
2018-12-11T12:39:37.242Z,1.60
2018-12-11T12:42:05.462Z,1.45
2018-12-11T12:44:33.690Z,1.72
2018-12-11T12:47:01.927Z,1.25
2018-12-11T12:49:30.145Z,2.00
2018-12-11T12:51:58.103Z,1.35
2018-12-11T12:54:26.080Z,1.65
2018-12-11T12:56:54.047Z,1.32
2018-12-11T12:59:22.251Z,1.00
2018-12-11T13:01:50.459Z,1.42
2018-12-11T13:04:18.736Z,1.60
2018-12-11T13:06:47.238Z,1.85
2018-12-11T13:09:15.430Z,2.75
2018-12-11T13:11:43.643Z,2.47
2018-12-11T13:14:11.848Z,2.02
2018-12-11T13:16:40.037Z,2.80
2018-12-11T13:19:08.234Z,5.03
2018-12-11T13:21:38.552Z,1.50
2018-12-11T13:24:06.825Z,1.60
2018-12-11T13:26:35.039Z,1.33
2018-12-11T13:30:27.764Z,1.60
2018-12-11T13:32:56.093Z,1.85
2018-12-11T13:35:24.296Z,1.90
2018-12-11T13:37:52.552Z,1.50
2018-12-11T13:40:20.844Z,1.40
2018-12-11T13:42:49.131Z,1.07
2018-12-11T13:45:17.450Z,1.10
2018-12-11T13:47:46.692Z,1.23
2018-12-11T13:50:14.886Z,1.30
2018-12-11T13:52:43.129Z,1.87
2018-12-11T13:55:11.354Z,1.37
2018-12-11T13:57:39.558Z,2.00
2018-12-11T14:00:07.789Z,1.70
2018-12-11T14:02:36.090Z,2.00
2018-12-11T14:05:04.606Z,1.83
2018-12-11T14:07:33.822Z,1.40
2018-12-11T14:10:02.048Z,1.10
2018-12-11T14:12:30.256Z,2.92
2018-12-11T14:15:00.516Z,2.08
2018-12-11T14:17:28.721Z,2.33
2018-12-11T14:19:56.938Z,3.50
2018-12-11T14:22:25.230Z,2.10
2018-12-11T14:24:55.456Z,2.05
2018-12-11T14:27:24.526Z,2.20
2018-12-11T14:29:52.748Z,2.70
2018-12-11T14:32:21.011Z,2.25
2018-12-11T14:34:48.964Z,2.58
2018-12-11T14:37:17.196Z,5.47
2018-12-11T14:39:45.473Z,6.53
2018-12-11T14:42:14.249Z,4.17
2018-12-11T14:44:42.484Z,2.87
2018-12-11T14:47:10.698Z,4.30
2018-12-11T14:49:38.905Z,8.10
2018-12-11T14:52:07.120Z,7.00
2018-12-11T14:54:35.328Z,5.60
2018-12-11T14:57:03.538Z,8.75
2018-12-11T14:59:31.728Z,5.55
2018-12-11T15:02:01.020Z,4.62
2018-12-11T15:04:29.218Z,3.22
2018-12-11T15:06:57.496Z,4.80
2018-12-11T15:09:32.229Z,5.03
2018-12-11T15:12:00.412Z,2.90
2018-12-11T15:14:28.614Z,3.22
2018-12-11T15:16:56.974Z,3.05
2018-12-11T15:19:25.192Z,2.90
2018-12-11T15:21:53.443Z,3.80
2018-12-11T15:24:21.740Z,5.22
2018-12-11T15:26:50.035Z,6.05
2018-12-11T15:29:18.235Z,6.67
2018-12-11T15:31:51.720Z,5.60
2018-12-11T15:34:20.018Z,4.72
2018-12-11T15:36:48.216Z,6.75
2018-12-11T15:39:16.545Z,3.83
2018-12-11T15:41:44.504Z,6.28
2018-12-11T15:44:12.716Z,5.12
2018-12-11T15:46:41.276Z,5.65
2018-12-11T15:49:09.546Z,8.53
2018-12-11T15:51:37.972Z,6.62
2018-12-11T15:54:06.237Z,7.28
2018-12-11T15:56:34.523Z,10.05
2018-12-11T15:59:02.757Z,7.20
2018-12-11T16:01:30.976Z,12.10
2018-12-11T16:03:59.275Z,7.40
2018-12-11T16:06:30.568Z,5.58
2018-12-11T16:08:59.560Z,4.60
2018-12-11T16:11:27.752Z,4.83
2018-12-11T16:13:55.974Z,4.42
2018-12-11T16:16:24.184Z,4.10
2018-12-11T16:18:52.385Z,4.53
2018-12-11T16:22:48.808Z,3.92
2018-12-11T16:25:19.595Z,4.75
2018-12-11T16:27:47.791Z,3.70
2018-12-11T16:30:16.202Z,5.12
2018-12-11T16:32:44.656Z,7.40
2018-12-11T16:35:12.889Z,6.08
2018-12-11T16:37:41.241Z,5.50
2018-12-11T16:40:09.445Z,8.18
2018-12-11T16:42:37.661Z,6.55
2018-12-11T16:45:06.236Z,5.33
2018-12-11T16:47:34.428Z,4.53
2018-12-11T16:50:02.637Z,3.70
2018-12-11T16:52:30.950Z,3.45
2018-12-11T16:54:59.200Z,4.50
2018-12-11T16:57:27.401Z,6.15
2018-12-11T16:59:58.953Z,7.00
2018-12-11T17:02:27.206Z,7.37
2018-12-11T17:04:55.420Z,9.90
2018-12-11T17:07:24.975Z,16.55
2018-12-11T17:09:53.525Z,8.85
2018-12-11T17:12:22.215Z,6.62
2018-12-11T17:14:53.647Z,5.03
2018-12-11T17:17:22.422Z,4.15
2018-12-11T17:19:51.753Z,4.35
2018-12-11T17:22:19.726Z,4.62
2018-12-11T17:24:47.776Z,6.28
2018-12-11T17:27:17.775Z,5.65
2018-12-11T17:29:45.968Z,6.50
2018-12-11T17:32:14.176Z,6.40
2018-12-11T17:34:42.373Z,8.20
2018-12-11T17:37:11.664Z,8.58
2018-12-11T17:39:39.862Z,7.90
2018-12-11T17:42:08.115Z,10.25
2018-12-11T17:44:36.312Z,10.03
2018-12-11T17:47:04.528Z,19.85
2018-12-11T17:49:32.733Z,11.83
2018-12-11T17:52:00.965Z,10.15
2018-12-11T17:54:29.228Z,10.20
2018-12-11T17:56:58.589Z,9.88
2018-12-11T17:59:26.796Z,11.00
2018-12-11T18:01:58.460Z,12.28
2018-12-11T18:04:26.721Z,18.80
2018-12-11T18:06:54.922Z,29.98
2018-12-11T18:09:23.168Z,14.73
2018-12-11T18:11:51.379Z,14.40
2018-12-11T18:14:19.624Z,12.35
2018-12-11T18:16:47.885Z,8.80
2018-12-11T18:19:16.110Z,7.50
2018-12-11T18:21:49.459Z,6.35
2018-12-11T18:24:17.703Z,4.95
2018-12-11T18:26:45.964Z,5.75
2018-12-11T18:29:15.231Z,6.28
2018-12-11T18:31:43.417Z,6.58
2018-12-11T18:34:11.713Z,5.83
2018-12-11T18:36:40.311Z,5.12
2018-12-11T18:39:08.728Z,5.00
2018-12-11T18:41:37.021Z,4.90
2018-12-11T18:44:05.231Z,4.40
2018-12-11T18:46:33.492Z,15.60
2018-12-11T18:49:06.655Z,13.60
2018-12-11T18:51:34.859Z,13.00
2018-12-11T18:54:03.069Z,15.38
2018-12-11T18:56:31.316Z,14.90
2018-12-11T18:58:59.577Z,19.42
2018-12-11T19:01:28.873Z,16.42
2018-12-11T19:03:57.089Z,15.48
2018-12-11T19:06:25.457Z,10.25
2018-12-11T19:08:53.637Z,8.83
2018-12-11T19:11:21.914Z,7.75
2018-12-11T19:13:50.119Z,7.53
2018-12-11T19:16:18.441Z,5.20
2018-12-11T19:18:46.730Z,6.15
2018-12-11T19:21:17.095Z,5.40
2018-12-11T19:24:06.140Z,7.85
2018-12-11T19:26:34.349Z,7.90
2018-12-11T19:29:02.646Z,7.10
2018-12-11T19:31:30.859Z,12.43
2018-12-11T19:34:03.056Z,14.53
2018-12-11T19:36:34.717Z,13.90
2018-12-11T19:39:04.614Z,8.15
2018-12-11T19:41:32.826Z,7.70
2018-12-11T19:44:01.118Z,7.05
2018-12-11T19:46:29.152Z,7.33
2018-12-11T19:48:57.189Z,7.70
2018-12-11T19:51:25.413Z,5.75
2018-12-11T19:53:53.640Z,5.10
2018-12-11T19:56:21.941Z,4.85
2018-12-11T19:58:49.907Z,4.87
2018-12-11T20:01:18.223Z,7.35
2018-12-11T20:03:46.528Z,10.03
2018-12-11T20:06:15.788Z,6.55
2018-12-11T20:08:44.067Z,5.45
2018-12-11T20:11:12.337Z,5.40
2018-12-11T20:13:40.588Z,5.35
2018-12-11T20:16:09.495Z,5.35
2018-12-11T20:18:37.866Z,4.90
2018-12-11T20:21:06.193Z,4.12
2018-12-11T20:23:34.471Z,5.20
2018-12-11T20:26:02.727Z,5.20
2018-12-11T20:28:30.955Z,5.65
2018-12-11T20:30:59.262Z,5.70
2018-12-11T20:33:27.560Z,7.35
2018-12-11T20:35:55.824Z,6.83
2018-12-11T20:38:23.827Z,8.75
2018-12-11T20:40:51.802Z,5.90
2018-12-11T20:43:20.228Z,5.80
2018-12-11T20:45:48.953Z,8.60
2018-12-11T20:48:20.037Z,8.70
2018-12-11T20:50:48.407Z,10.18
2018-12-11T20:53:16.708Z,8.63
2018-12-11T20:55:45.017Z,7.17
2018-12-11T20:58:13.269Z,9.23
2018-12-11T21:00:41.558Z,10.15
2018-12-11T21:03:09.876Z,14.35
2018-12-11T21:05:40.191Z,20.32
2018-12-11T21:08:12.658Z,18.07
2018-12-11T21:10:42.996Z,16.70
2018-12-11T21:13:11.508Z,24.27
2018-12-11T21:15:39.759Z,14.03
2018-12-11T21:18:08.046Z,12.03
2018-12-11T21:20:36.273Z,22.80
2018-12-11T21:23:05.634Z,29.82
2018-12-11T21:25:34.973Z,35.85
2018-12-11T21:28:03.292Z,16.10
2018-12-11T21:30:31.532Z,11.08
2018-12-11T21:33:00.809Z,8.08
2018-12-11T21:35:29.118Z,7.25
2018-12-11T21:37:57.404Z,8.85
2018-12-11T21:40:28.925Z,11.63
2018-12-11T21:42:57.213Z,12.60
2018-12-11T21:45:25.199Z,8.55
2018-12-11T21:47:55.517Z,7.87
2018-12-11T21:50:23.752Z,12.13
2018-12-11T21:52:51.740Z,13.65
2018-12-11T21:55:19.980Z,15.05
2018-12-11T21:57:48.236Z,13.08
2018-12-11T22:00:16.522Z,13.10
2018-12-11T22:02:46.858Z,9.63
2018-12-11T22:05:15.172Z,16.55
2018-12-11T22:07:43.496Z,13.20
2018-12-11T22:10:11.724Z,7.08
2018-12-11T22:12:40.045Z,5.50
2018-12-11T22:15:10.360Z,14.78
2018-12-11T22:17:38.702Z,23.55
2018-12-11T22:20:06.976Z,19.70
2018-12-11T22:22:35.281Z,15.13
2018-12-11T22:25:03.517Z,15.48
2018-12-11T22:27:36.631Z,13.05
2018-12-11T22:30:05.284Z,11.08
2018-12-11T22:32:33.506Z,15.63
2018-12-11T22:35:01.820Z,12.03
2018-12-11T22:37:31.197Z,10.93
2018-12-11T22:39:59.440Z,13.43
2018-12-11T22:42:27.743Z,12.03
2018-12-11T22:44:55.980Z,13.13
2018-12-11T22:47:24.452Z,17.52
2018-12-11T22:49:52.781Z,13.18
2018-12-11T22:52:28.332Z,12.30
2018-12-11T22:54:56.552Z,7.90
2018-12-11T22:59:59.387Z,6.15
2018-12-11T23:02:27.628Z,5.20
2018-12-11T23:04:55.891Z,4.25
2018-12-11T23:07:24.249Z,4.70
2018-12-11T23:09:52.613Z,5.55
2018-12-11T23:12:21.844Z,4.10
2018-12-11T23:14:52.197Z,4.65
2018-12-11T23:17:20.387Z,4.60
2018-12-11T23:19:50.732Z,4.35
2018-12-11T23:22:19.015Z,5.58
2018-12-11T23:24:47.320Z,5.33
2018-12-11T23:27:15.589Z,4.90
2018-12-11T23:29:47.156Z,5.42
2018-12-11T23:32:15.389Z,4.10
2018-12-11T23:34:45.667Z,4.62
2018-12-11T23:37:13.948Z,4.22
2018-12-11T23:39:42.188Z,5.00
2018-12-11T23:42:10.464Z,4.42
2018-12-11T23:44:38.725Z,4.65
2018-12-11T23:47:06.899Z,3.70
2018-12-11T23:49:36.148Z,4.28
2018-12-11T23:52:04.380Z,4.58
2018-12-11T23:54:32.657Z,4.17
2018-12-11T23:57:00.847Z,4.37
2018-12-11T23:59:29.415Z,5.20
